sensor_id;sensor_type;location;lat;lon;timestamp;P1;durP1;ratioP1;P2;durP2;ratioP2
85986;SDS011;76562;42.702;23.250;2024-03-08T00:01:19;8.03;;;6.00;;
85986;SDS011;76562;42.702;23.250;2024-03-08T00:03:49;10.97;;;7.03;;
85986;SDS011;76562;42.702;23.250;2024-03-08T00:06:18;7.83;;;5.87;;
85986;SDS011;76562;42.702;23.250;2024-03-08T00:08:47;8.57;;;6.57;;
85986;SDS011;76562;42.702;23.250;2024-03-08T00:11:15;8.23;;;6.03;;
85986;SDS011;76562;42.702;23.250;2024-03-08T00:13:44;10.10;;;6.20;;
85986;SDS011;76562;42.702;23.250;2024-03-08T00:16:15;7.47;;;5.70;;
85986;SDS011;76562;42.702;23.250;2024-03-08T00:18:46;7.53;;;5.53;;
85986;SDS011;76562;42.702;23.250;2024-03-08T00:21:16;8.90;;;5.87;;
85986;SDS011;76562;42.702;23.250;2024-03-08T00:23:45;8.43;;;5.50;;
85986;SDS011;76562;42.702;23.250;2024-03-08T00:26:14;7.77;;;5.60;;
85986;SDS011;76562;42.702;23.250;2024-03-08T00:28:43;6.07;;;5.13;;
85986;SDS011;76562;42.702;23.250;2024-03-08T00:31:12;6.07;;;5.20;;
85986;SDS011;76562;42.702;23.250;2024-03-08T00:33:42;6.80;;;4.80;;
85986;SDS011;76562;42.702;23.250;2024-03-08T00:36:11;6.47;;;4.90;;
85986;SDS011;76562;42.702;23.250;2024-03-08T00:38:40;6.20;;;4.70;;
85986;SDS011;76562;42.702;23.250;2024-03-08T00:41:10;7.00;;;4.73;;
85986;SDS011;76562;42.702;23.250;2024-03-08T00:43:39;6.13;;;4.83;;
85986;SDS011;76562;42.702;23.250;2024-03-08T00:46:09;6.30;;;4.60;;
85986;SDS011;76562;42.702;23.250;2024-03-08T00:48:37;6.13;;;4.77;;
85986;SDS011;76562;42.702;23.250;2024-03-08T00:51:08;7.57;;;4.80;;
85986;SDS011;76562;42.702;23.250;2024-03-08T00:53:37;7.07;;;4.60;;
85986;SDS011;76562;42.702;23.250;2024-03-08T00:56:05;5.97;;;4.47;;
85986;SDS011;76562;42.702;23.250;2024-03-08T00:58:38;5.43;;;3.93;;
85986;SDS011;76562;42.702;23.250;2024-03-08T01:01:07;5.20;;;4.10;;
85986;SDS011;76562;42.702;23.250;2024-03-08T01:03:37;5.90;;;4.47;;
85986;SDS011;76562;42.702;23.250;2024-03-08T01:06:06;4.67;;;4.00;;
85986;SDS011;76562;42.702;23.250;2024-03-08T01:08:36;6.90;;;4.33;;
85986;SDS011;76562;42.702;23.250;2024-03-08T01:11:05;4.93;;;4.10;;
85986;SDS011;76562;42.702;23.250;2024-03-08T01:13:34;5.23;;;3.87;;
85986;SDS011;76562;42.702;23.250;2024-03-08T01:16:03;5.40;;;4.13;;
85986;SDS011;76562;42.702;23.250;2024-03-08T01:18:33;4.87;;;3.67;;
85986;SDS011;76562;42.702;23.250;2024-03-08T01:21:02;5.27;;;3.90;;
85986;SDS011;76562;42.702;23.250;2024-03-08T01:23:31;4.40;;;4.00;;
85986;SDS011;76562;42.702;23.250;2024-03-08T01:26:03;6.93;;;3.80;;
85986;SDS011;76562;42.702;23.250;2024-03-08T01:28:33;6.13;;;3.40;;
85986;SDS011;76562;42.702;23.250;2024-03-08T01:31:03;4.47;;;3.83;;
85986;SDS011;76562;42.702;23.250;2024-03-08T01:33:33;4.53;;;3.57;;
85986;SDS011;76562;42.702;23.250;2024-03-08T01:36:02;4.43;;;3.57;;
85986;SDS011;76562;42.702;23.250;2024-03-08T01:38:31;4.57;;;3.17;;
85986;SDS011;76562;42.702;23.250;2024-03-08T01:41:00;4.93;;;3.13;;
85986;SDS011;76562;42.702;23.250;2024-03-08T01:43:31;4.17;;;3.33;;
85986;SDS011;76562;42.702;23.250;2024-03-08T01:46:00;3.90;;;3.23;;
85986;SDS011;76562;42.702;23.250;2024-03-08T01:48:30;3.80;;;3.33;;
85986;SDS011;76562;42.702;23.250;2024-03-08T01:50:59;4.13;;;3.40;;
85986;SDS011;76562;42.702;23.250;2024-03-08T01:53:28;3.50;;;2.77;;
85986;SDS011;76562;42.702;23.250;2024-03-08T01:55:58;4.80;;;3.00;;
85986;SDS011;76562;42.702;23.250;2024-03-08T01:58:30;4.83;;;3.30;;
85986;SDS011;76562;42.702;23.250;2024-03-08T02:01:00;3.40;;;2.87;;
85986;SDS011;76562;42.702;23.250;2024-03-08T02:03:30;3.50;;;3.10;;
85986;SDS011;76562;42.702;23.250;2024-03-08T02:05:59;3.23;;;2.93;;
85986;SDS011;76562;42.702;23.250;2024-03-08T02:08:28;4.07;;;3.23;;
85986;SDS011;76562;42.702;23.250;2024-03-08T02:10:57;2.97;;;2.50;;
85986;SDS011;76562;42.702;23.250;2024-03-08T02:13:27;4.03;;;2.67;;
85986;SDS011;76562;42.702;23.250;2024-03-08T02:15:58;3.33;;;2.73;;
85986;SDS011;76562;42.702;23.250;2024-03-08T02:18:28;3.93;;;2.87;;
85986;SDS011;76562;42.702;23.250;2024-03-08T02:20:59;4.07;;;3.00;;
85986;SDS011;76562;42.702;23.250;2024-03-08T02:23:30;3.37;;;2.40;;
85986;SDS011;76562;42.702;23.250;2024-03-08T02:26:03;5.83;;;2.47;;
85986;SDS011;76562;42.702;23.250;2024-03-08T02:28:32;3.20;;;2.73;;
85986;SDS011;76562;42.702;23.250;2024-03-08T02:31:02;4.00;;;2.33;;
85986;SDS011;76562;42.702;23.250;2024-03-08T02:33:34;3.07;;;2.37;;
85986;SDS011;76562;42.702;23.250;2024-03-08T02:36:05;2.90;;;2.43;;
85986;SDS011;76562;42.702;23.250;2024-03-08T02:38:35;3.10;;;2.50;;
85986;SDS011;76562;42.702;23.250;2024-03-08T02:41:04;4.13;;;2.30;;
85986;SDS011;76562;42.702;23.250;2024-03-08T02:43:33;2.40;;;2.20;;
85986;SDS011;76562;42.702;23.250;2024-03-08T02:46:01;2.77;;;2.53;;
85986;SDS011;76562;42.702;23.250;2024-03-08T02:48:32;4.27;;;2.03;;
85986;SDS011;76562;42.702;23.250;2024-03-08T02:51:00;5.90;;;2.70;;
85986;SDS011;76562;42.702;23.250;2024-03-08T02:53:33;3.10;;;2.40;;
85986;SDS011;76562;42.702;23.250;2024-03-08T02:56:02;1.80;;;1.70;;
85986;SDS011;76562;42.702;23.250;2024-03-08T02:58:31;2.10;;;1.90;;
85986;SDS011;76562;42.702;23.250;2024-03-08T03:01:00;2.60;;;2.23;;
85986;SDS011;76562;42.702;23.250;2024-03-08T03:03:29;5.20;;;1.97;;
85986;SDS011;76562;42.702;23.250;2024-03-08T03:05:58;2.50;;;2.10;;
85986;SDS011;76562;42.702;23.250;2024-03-08T03:08:28;2.60;;;2.10;;
85986;SDS011;76562;42.702;23.250;2024-03-08T03:10:58;3.03;;;2.20;;
85986;SDS011;76562;42.702;23.250;2024-03-08T03:13:27;2.43;;;1.93;;
85986;SDS011;76562;42.702;23.250;2024-03-08T03:15:56;2.90;;;2.30;;
85986;SDS011;76562;42.702;23.250;2024-03-08T03:18:26;2.37;;;1.70;;
85986;SDS011;76562;42.702;23.250;2024-03-08T03:20:55;2.63;;;1.90;;
85986;SDS011;76562;42.702;23.250;2024-03-08T03:23:24;3.30;;;1.83;;
85986;SDS011;76562;42.702;23.250;2024-03-08T03:25:53;4.33;;;2.00;;
85986;SDS011;76562;42.702;23.250;2024-03-08T03:28:25;3.30;;;2.17;;
85986;SDS011;76562;42.702;23.250;2024-03-08T03:30:55;2.77;;;1.80;;
85986;SDS011;76562;42.702;23.250;2024-03-08T03:33:25;2.17;;;1.97;;
85986;SDS011;76562;42.702;23.250;2024-03-08T03:35:55;1.90;;;1.80;;
85986;SDS011;76562;42.702;23.250;2024-03-08T03:38:23;4.93;;;2.10;;
85986;SDS011;76562;42.702;23.250;2024-03-08T03:40:55;2.10;;;1.90;;
85986;SDS011;76562;42.702;23.250;2024-03-08T03:43:32;2.63;;;1.80;;
85986;SDS011;76562;42.702;23.250;2024-03-08T03:46:01;3.30;;;1.73;;
85986;SDS011;76562;42.702;23.250;2024-03-08T03:48:30;2.00;;;1.80;;
85986;SDS011;76562;42.702;23.250;2024-03-08T03:50:59;2.00;;;1.70;;
85986;SDS011;76562;42.702;23.250;2024-03-08T03:53:28;2.83;;;1.90;;
85986;SDS011;76562;42.702;23.250;2024-03-08T03:55:57;3.23;;;1.67;;
85986;SDS011;76562;42.702;23.250;2024-03-08T03:58:26;2.63;;;2.07;;
85986;SDS011;76562;42.702;23.250;2024-03-08T04:00:56;2.60;;;1.67;;
85986;SDS011;76562;42.702;23.250;2024-03-08T04:03:25;1.90;;;1.70;;
85986;SDS011;76562;42.702;23.250;2024-03-08T04:05:54;1.73;;;1.63;;
85986;SDS011;76562;42.702;23.250;2024-03-08T04:08:23;3.40;;;1.80;;
85986;SDS011;76562;42.702;23.250;2024-03-08T04:10:52;3.33;;;2.10;;
85986;SDS011;76562;42.702;23.250;2024-03-08T04:13:21;5.20;;;1.93;;
85986;SDS011;76562;42.702;23.250;2024-03-08T04:15:49;4.20;;;1.90;;
85986;SDS011;76562;42.702;23.250;2024-03-08T04:18:20;5.73;;;1.80;;
85986;SDS011;76562;42.702;23.250;2024-03-08T04:20:49;2.00;;;1.63;;
85986;SDS011;76562;42.702;23.250;2024-03-08T04:23:17;5.27;;;1.70;;
85986;SDS011;76562;42.702;23.250;2024-03-08T04:25:46;4.53;;;1.90;;
85986;SDS011;76562;42.702;23.250;2024-03-08T04:28:15;4.70;;;1.70;;
85986;SDS011;76562;42.702;23.250;2024-03-08T04:30:44;4.57;;;2.00;;
85986;SDS011;76562;42.702;23.250;2024-03-08T04:33:13;3.67;;;1.83;;
85986;SDS011;76562;42.702;23.250;2024-03-08T04:35:46;3.57;;;2.00;;
85986;SDS011;76562;42.702;23.250;2024-03-08T04:38:15;2.83;;;1.87;;
85986;SDS011;76562;42.702;23.250;2024-03-08T04:40:43;3.63;;;1.67;;
85986;SDS011;76562;42.702;23.250;2024-03-08T04:43:12;2.57;;;1.57;;
85986;SDS011;76562;42.702;23.250;2024-03-08T04:45:42;2.87;;;1.67;;
85986;SDS011;76562;42.702;23.250;2024-03-08T04:48:11;3.27;;;1.70;;
85986;SDS011;76562;42.702;23.250;2024-03-08T04:50:40;2.73;;;1.70;;
85986;SDS011;76562;42.702;23.250;2024-03-08T04:53:10;4.53;;;1.80;;
85986;SDS011;76562;42.702;23.250;2024-03-08T04:55:38;4.50;;;1.60;;
85986;SDS011;76562;42.702;23.250;2024-03-08T04:58:07;8.57;;;2.00;;
85986;SDS011;76562;42.702;23.250;2024-03-08T05:00:36;9.70;;;2.30;;
85986;SDS011;76562;42.702;23.250;2024-03-08T05:03:05;6.03;;;1.97;;
85986;SDS011;76562;42.702;23.250;2024-03-08T05:05:33;7.67;;;2.30;;
85986;SDS011;76562;42.702;23.250;2024-03-08T05:08:03;6.87;;;2.07;;
85986;SDS011;76562;42.702;23.250;2024-03-08T05:10:34;4.30;;;1.90;;
85986;SDS011;76562;42.702;23.250;2024-03-08T05:13:03;6.40;;;2.20;;
85986;SDS011;76562;42.702;23.250;2024-03-08T05:15:32;7.03;;;2.70;;
85986;SDS011;76562;42.702;23.250;2024-03-08T05:18:02;4.67;;;2.07;;
85986;SDS011;76562;42.702;23.250;2024-03-08T05:20:31;6.73;;;2.60;;
85986;SDS011;76562;42.702;23.250;2024-03-08T05:23:00;4.47;;;3.57;;
85986;SDS011;76562;42.702;23.250;2024-03-08T05:25:28;7.73;;;3.97;;
85986;SDS011;76562;42.702;23.250;2024-03-08T05:27:59;6.03;;;4.37;;
85986;SDS011;76562;42.702;23.250;2024-03-08T05:30:28;6.77;;;4.93;;
85986;SDS011;76562;42.702;23.250;2024-03-08T05:32:57;5.17;;;3.57;;
85986;SDS011;76562;42.702;23.250;2024-03-08T05:35:25;4.03;;;3.37;;
85986;SDS011;76562;42.702;23.250;2024-03-08T05:37:54;6.67;;;4.13;;
85986;SDS011;76562;42.702;23.250;2024-03-08T05:40:25;4.93;;;3.60;;
85986;SDS011;76562;42.702;23.250;2024-03-08T05:42:54;4.93;;;3.00;;
85986;SDS011;76562;42.702;23.250;2024-03-08T05:45:24;5.70;;;3.03;;
85986;SDS011;76562;42.702;23.250;2024-03-08T05:47:52;5.37;;;2.80;;
85986;SDS011;76562;42.702;23.250;2024-03-08T05:50:21;6.30;;;3.00;;
85986;SDS011;76562;42.702;23.250;2024-03-08T05:52:50;5.13;;;3.20;;
85986;SDS011;76562;42.702;23.250;2024-03-08T05:55:19;5.67;;;2.87;;
85986;SDS011;76562;42.702;23.250;2024-03-08T05:57:49;5.60;;;2.37;;
85986;SDS011;76562;42.702;23.250;2024-03-08T06:00:18;4.83;;;2.70;;
85986;SDS011;76562;42.702;23.250;2024-03-08T06:02:48;3.80;;;3.20;;
85986;SDS011;76562;42.702;23.250;2024-03-08T06:05:17;4.47;;;3.27;;
85986;SDS011;76562;42.702;23.250;2024-03-08T06:07:45;6.83;;;3.50;;
85986;SDS011;76562;42.702;23.250;2024-03-08T06:10:15;4.73;;;3.50;;
85986;SDS011;76562;42.702;23.250;2024-03-08T06:12:45;5.37;;;3.40;;
85986;SDS011;76562;42.702;23.250;2024-03-08T06:15:14;4.93;;;3.53;;
85986;SDS011;76562;42.702;23.250;2024-03-08T06:17:43;4.80;;;2.83;;
85986;SDS011;76562;42.702;23.250;2024-03-08T06:20:13;7.07;;;3.80;;
85986;SDS011;76562;42.702;23.250;2024-03-08T06:22:42;5.23;;;3.40;;
85986;SDS011;76562;42.702;23.250;2024-03-08T06:25:11;3.70;;;3.30;;
85986;SDS011;76562;42.702;23.250;2024-03-08T06:27:40;4.47;;;3.50;;
85986;SDS011;76562;42.702;23.250;2024-03-08T06:30:10;5.20;;;3.27;;
85986;SDS011;76562;42.702;23.250;2024-03-08T06:32:39;3.50;;;3.17;;
85986;SDS011;76562;42.702;23.250;2024-03-08T06:35:10;4.40;;;3.40;;
85986;SDS011;76562;42.702;23.250;2024-03-08T06:37:40;3.60;;;3.30;;
85986;SDS011;76562;42.702;23.250;2024-03-08T06:40:11;3.83;;;3.17;;
85986;SDS011;76562;42.702;23.250;2024-03-08T06:42:42;3.57;;;3.27;;
85986;SDS011;76562;42.702;23.250;2024-03-08T06:45:10;3.67;;;3.07;;
85986;SDS011;76562;42.702;23.250;2024-03-08T06:47:40;4.63;;;3.57;;
85986;SDS011;76562;42.702;23.250;2024-03-08T06:50:10;3.90;;;3.40;;
85986;SDS011;76562;42.702;23.250;2024-03-08T06:52:41;3.33;;;3.03;;
85986;SDS011;76562;42.702;23.250;2024-03-08T06:55:11;3.37;;;3.07;;
85986;SDS011;76562;42.702;23.250;2024-03-08T06:57:40;3.80;;;3.00;;
85986;SDS011;76562;42.702;23.250;2024-03-08T07:00:10;3.43;;;3.13;;
85986;SDS011;76562;42.702;23.250;2024-03-08T07:02:45;4.40;;;2.93;;
85986;SDS011;76562;42.702;23.250;2024-03-08T07:05:16;5.77;;;3.47;;
85986;SDS011;76562;42.702;23.250;2024-03-08T07:07:46;3.23;;;3.00;;
85986;SDS011;76562;42.702;23.250;2024-03-08T07:10:16;2.97;;;2.57;;
85986;SDS011;76562;42.702;23.250;2024-03-08T07:12:46;4.73;;;2.87;;
85986;SDS011;76562;42.702;23.250;2024-03-08T07:15:15;3.83;;;3.20;;
85986;SDS011;76562;42.702;23.250;2024-03-08T07:17:46;3.00;;;2.70;;
85986;SDS011;76562;42.702;23.250;2024-03-08T07:20:15;3.60;;;3.03;;
85986;SDS011;76562;42.702;23.250;2024-03-08T07:22:47;3.40;;;3.10;;
85986;SDS011;76562;42.702;23.250;2024-03-08T07:25:18;3.70;;;2.67;;
85986;SDS011;76562;42.702;23.250;2024-03-08T07:27:48;4.10;;;3.67;;
85986;SDS011;76562;42.702;23.250;2024-03-08T07:30:18;4.80;;;3.47;;
85986;SDS011;76562;42.702;23.250;2024-03-08T07:33:06;4.07;;;3.67;;
85986;SDS011;76562;42.702;23.250;2024-03-08T07:35:39;3.90;;;3.57;;
85986;SDS011;76562;42.702;23.250;2024-03-08T07:38:10;3.43;;;3.13;;
85986;SDS011;76562;42.702;23.250;2024-03-08T07:40:39;5.10;;;3.57;;
85986;SDS011;76562;42.702;23.250;2024-03-08T07:43:12;3.53;;;3.20;;
85986;SDS011;76562;42.702;23.250;2024-03-08T07:45:41;4.00;;;3.60;;
85986;SDS011;76562;42.702;23.250;2024-03-08T07:48:10;4.13;;;3.73;;
85986;SDS011;76562;42.702;23.250;2024-03-08T07:50:40;3.40;;;3.10;;
85986;SDS011;76562;42.702;23.250;2024-03-08T07:53:10;3.97;;;3.57;;
85986;SDS011;76562;42.702;23.250;2024-03-08T07:55:39;3.70;;;3.30;;
85986;SDS011;76562;42.702;23.250;2024-03-08T07:58:09;4.10;;;3.70;;
85986;SDS011;76562;42.702;23.250;2024-03-08T08:00:39;4.03;;;3.67;;
85986;SDS011;76562;42.702;23.250;2024-03-08T08:03:13;3.53;;;3.23;;
85986;SDS011;76562;42.702;23.250;2024-03-08T08:05:42;3.57;;;3.27;;
85986;SDS011;76562;42.702;23.250;2024-03-08T08:08:13;3.17;;;2.87;;
85986;SDS011;76562;42.702;23.250;2024-03-08T08:10:42;3.33;;;3.03;;
85986;SDS011;76562;42.702;23.250;2024-03-08T08:13:11;3.30;;;3.00;;
85986;SDS011;76562;42.702;23.250;2024-03-08T08:15:40;2.60;;;2.40;;
85986;SDS011;76562;42.702;23.250;2024-03-08T08:18:09;3.33;;;2.90;;
85986;SDS011;76562;42.702;23.250;2024-03-08T08:20:38;3.67;;;2.90;;
85986;SDS011;76562;42.702;23.250;2024-03-08T08:23:07;3.40;;;3.03;;
85986;SDS011;76562;42.702;23.250;2024-03-08T08:25:39;3.10;;;2.80;;
85986;SDS011;76562;42.702;23.250;2024-03-08T08:28:08;3.13;;;2.83;;
85986;SDS011;76562;42.702;23.250;2024-03-08T08:30:36;2.53;;;2.30;;
85986;SDS011;76562;42.702;23.250;2024-03-08T08:33:05;3.13;;;2.50;;
85986;SDS011;76562;42.702;23.250;2024-03-08T08:35:35;3.23;;;2.30;;
85986;SDS011;76562;42.702;23.250;2024-03-08T08:38:05;2.30;;;2.10;;
85986;SDS011;76562;42.702;23.250;2024-03-08T08:40:34;2.80;;;2.60;;
85986;SDS011;76562;42.702;23.250;2024-03-08T08:43:05;2.60;;;2.40;;
85986;SDS011;76562;42.702;23.250;2024-03-08T08:45:34;2.37;;;2.20;;
85986;SDS011;76562;42.702;23.250;2024-03-08T08:48:03;2.20;;;2.00;;
85986;SDS011;76562;42.702;23.250;2024-03-08T08:50:32;2.53;;;2.33;;
85986;SDS011;76562;42.702;23.250;2024-03-08T08:53:01;2.70;;;2.50;;
85986;SDS011;76562;42.702;23.250;2024-03-08T08:55:31;2.40;;;2.20;;
85986;SDS011;76562;42.702;23.250;2024-03-08T08:58:03;3.30;;;1.80;;
85986;SDS011;76562;42.702;23.250;2024-03-08T09:00:34;2.83;;;2.30;;
85986;SDS011;76562;42.702;23.250;2024-03-08T09:03:03;2.40;;;2.20;;
85986;SDS011;76562;42.702;23.250;2024-03-08T09:05:34;2.77;;;2.33;;
85986;SDS011;76562;42.702;23.250;2024-03-08T09:08:06;2.10;;;1.97;;
85986;SDS011;76562;42.702;23.250;2024-03-08T09:10:36;2.20;;;2.00;;
85986;SDS011;76562;42.702;23.250;2024-03-08T09:13:07;2.30;;;2.10;;
85986;SDS011;76562;42.702;23.250;2024-03-08T09:15:44;2.10;;;1.90;;
85986;SDS011;76562;42.702;23.250;2024-03-08T09:18:14;2.20;;;2.10;;
85986;SDS011;76562;42.702;23.250;2024-03-08T09:20:43;2.43;;;2.23;;
85986;SDS011;76562;42.702;23.250;2024-03-08T09:23:12;2.30;;;2.20;;
85986;SDS011;76562;42.702;23.250;2024-03-08T09:25:42;2.43;;;2.23;;
85986;SDS011;76562;42.702;23.250;2024-03-08T09:28:15;2.30;;;2.10;;
85986;SDS011;76562;42.702;23.250;2024-03-08T09:30:44;2.30;;;2.10;;
85986;SDS011;76562;42.702;23.250;2024-03-08T09:33:25;1.97;;;1.77;;
85986;SDS011;76562;42.702;23.250;2024-03-08T09:35:55;2.93;;;2.00;;
85986;SDS011;76562;42.702;23.250;2024-03-08T09:38:27;1.93;;;1.83;;
85986;SDS011;76562;42.702;23.250;2024-03-08T09:40:56;2.20;;;2.00;;
85986;SDS011;76562;42.702;23.250;2024-03-08T09:43:27;2.23;;;2.03;;
85986;SDS011;76562;42.702;23.250;2024-03-08T09:45:57;2.13;;;2.00;;
85986;SDS011;76562;42.702;23.250;2024-03-08T09:48:26;2.20;;;2.00;;
85986;SDS011;76562;42.702;23.250;2024-03-08T09:50:56;1.80;;;1.70;;
85986;SDS011;76562;42.702;23.250;2024-03-08T09:53:25;1.97;;;1.87;;
85986;SDS011;76562;42.702;23.250;2024-03-08T09:55:54;2.00;;;1.90;;
85986;SDS011;76562;42.702;23.250;2024-03-08T09:58:23;2.53;;;2.30;;
85986;SDS011;76562;42.702;23.250;2024-03-08T10:01:22;2.33;;;1.80;;
85986;SDS011;76562;42.702;23.250;2024-03-08T10:03:53;2.10;;;1.90;;
85986;SDS011;76562;42.702;23.250;2024-03-08T10:06:23;1.80;;;1.70;;
85986;SDS011;76562;42.702;23.250;2024-03-08T10:08:53;1.73;;;1.63;;
85986;SDS011;76562;42.702;23.250;2024-03-08T10:11:22;1.87;;;1.77;;
85986;SDS011;76562;42.702;23.250;2024-03-08T10:13:54;1.90;;;1.80;;
85986;SDS011;76562;42.702;23.250;2024-03-08T10:16:25;2.77;;;1.60;;
85986;SDS011;76562;42.702;23.250;2024-03-08T10:18:54;1.90;;;1.80;;
85986;SDS011;76562;42.702;23.250;2024-03-08T10:21:26;1.87;;;1.70;;
85986;SDS011;76562;42.702;23.250;2024-03-08T10:23:55;2.13;;;1.93;;
85986;SDS011;76562;42.702;23.250;2024-03-08T10:26:25;2.63;;;1.67;;
85986;SDS011;76562;42.702;23.250;2024-03-08T10:28:55;1.70;;;1.60;;
85986;SDS011;76562;42.702;23.250;2024-03-08T10:31:26;1.97;;;1.87;;
85986;SDS011;76562;42.702;23.250;2024-03-08T10:33:55;2.10;;;1.90;;
85986;SDS011;76562;42.702;23.250;2024-03-08T10:36:24;1.53;;;1.43;;
85986;SDS011;76562;42.702;23.250;2024-03-08T10:38:53;1.90;;;1.80;;
85986;SDS011;76562;42.702;23.250;2024-03-08T10:41:22;1.80;;;1.70;;
85986;SDS011;76562;42.702;23.250;2024-03-08T10:43:59;1.77;;;1.67;;
85986;SDS011;76562;42.702;23.250;2024-03-08T10:46:45;1.40;;;1.30;;
85986;SDS011;76562;42.702;23.250;2024-03-08T10:49:30;1.60;;;1.50;;
85986;SDS011;76562;42.702;23.250;2024-03-08T10:52:03;1.60;;;1.50;;
85986;SDS011;76562;42.702;23.250;2024-03-08T10:54:32;1.77;;;1.67;;
85986;SDS011;76562;42.702;23.250;2024-03-08T10:57:03;1.77;;;1.63;;
85986;SDS011;76562;42.702;23.250;2024-03-08T10:59:35;1.73;;;1.63;;
85986;SDS011;76562;42.702;23.250;2024-03-08T11:02:05;1.53;;;1.20;;
85986;SDS011;76562;42.702;23.250;2024-03-08T11:04:36;2.00;;;1.73;;
85986;SDS011;76562;42.702;23.250;2024-03-08T11:07:05;2.10;;;1.50;;
85986;SDS011;76562;42.702;23.250;2024-03-08T11:09:35;1.70;;;1.60;;
85986;SDS011;76562;42.702;23.250;2024-03-08T11:12:22;1.73;;;1.63;;
85986;SDS011;76562;42.702;23.250;2024-03-08T11:14:55;1.60;;;1.50;;
85986;SDS011;76562;42.702;23.250;2024-03-08T11:17:44;1.83;;;1.70;;
85986;SDS011;76562;42.702;23.250;2024-03-08T11:20:14;1.50;;;1.40;;
85986;SDS011;76562;42.702;23.250;2024-03-08T11:22:47;1.40;;;1.30;;
85986;SDS011;76562;42.702;23.250;2024-03-08T11:25:31;1.57;;;1.47;;
85986;SDS011;76562;42.702;23.250;2024-03-08T11:33:55;3.87;;;2.20;;
85986;SDS011;76562;42.702;23.250;2024-03-08T11:36:25;2.50;;;1.70;;
85986;SDS011;76562;42.702;23.250;2024-03-08T11:38:53;1.63;;;1.53;;
85986;SDS011;76562;42.702;23.250;2024-03-08T11:41:23;1.40;;;1.30;;
85986;SDS011;76562;42.702;23.250;2024-03-08T11:44:01;1.60;;;1.50;;
85986;SDS011;76562;42.702;23.250;2024-03-08T11:46:33;2.10;;;1.17;;
85986;SDS011;76562;42.702;23.250;2024-03-08T11:49:04;1.40;;;1.30;;
85986;SDS011;76562;42.702;23.250;2024-03-08T11:51:33;2.35;;;1.25;;
85986;SDS011;76562;42.702;23.250;2024-03-08T11:54:01;1.30;;;1.30;;
85986;SDS011;76562;42.702;23.250;2024-03-08T11:56:30;1.48;;;1.38;;
85986;SDS011;76562;42.702;23.250;2024-03-08T11:59:01;1.33;;;1.23;;
85986;SDS011;76562;42.702;23.250;2024-03-08T12:01:30;2.40;;;1.50;;
85986;SDS011;76562;42.702;23.250;2024-03-08T12:03:59;1.13;;;1.10;;
85986;SDS011;76562;42.702;23.250;2024-03-08T12:06:37;1.30;;;1.20;;
85986;SDS011;76562;42.702;23.250;2024-03-08T12:09:08;1.33;;;1.23;;
85986;SDS011;76562;42.702;23.250;2024-03-08T12:11:37;1.20;;;1.20;;
85986;SDS011;76562;42.702;23.250;2024-03-08T12:14:07;1.38;;;1.27;;
85986;SDS011;76562;42.702;23.250;2024-03-08T12:16:37;1.27;;;1.17;;
85986;SDS011;76562;42.702;23.250;2024-03-08T12:19:05;1.53;;;1.43;;
85986;SDS011;76562;42.702;23.250;2024-03-08T12:21:36;1.47;;;1.37;;
85986;SDS011;76562;42.702;23.250;2024-03-08T12:24:09;1.50;;;1.40;;
85986;SDS011;76562;42.702;23.250;2024-03-08T12:26:40;1.30;;;1.20;;
85986;SDS011;76562;42.702;23.250;2024-03-08T12:29:16;1.50;;;1.40;;
85986;SDS011;76562;42.702;23.250;2024-03-08T12:31:47;1.30;;;1.20;;
85986;SDS011;76562;42.702;23.250;2024-03-08T12:34:17;1.23;;;1.20;;
85986;SDS011;76562;42.702;23.250;2024-03-08T12:36:47;1.60;;;1.50;;
85986;SDS011;76562;42.702;23.250;2024-03-08T12:39:22;1.47;;;1.37;;
85986;SDS011;76562;42.702;23.250;2024-03-08T12:41:54;1.60;;;1.50;;
85986;SDS011;76562;42.702;23.250;2024-03-08T12:44:24;1.80;;;1.30;;
85986;SDS011;76562;42.702;23.250;2024-03-08T12:46:53;2.80;;;1.63;;
85986;SDS011;76562;42.702;23.250;2024-03-08T12:49:22;1.47;;;1.37;;
85986;SDS011;76562;42.702;23.250;2024-03-08T12:51:52;1.80;;;1.70;;
85986;SDS011;76562;42.702;23.250;2024-03-08T12:54:20;1.60;;;1.50;;
85986;SDS011;76562;42.702;23.250;2024-03-08T12:56:51;1.30;;;1.20;;
85986;SDS011;76562;42.702;23.250;2024-03-08T12:59:22;1.27;;;1.23;;
85986;SDS011;76562;42.702;23.250;2024-03-08T13:01:52;1.17;;;1.17;;
85986;SDS011;76562;42.702;23.250;2024-03-08T13:04:21;1.70;;;1.60;;
85986;SDS011;76562;42.702;23.250;2024-03-08T13:06:49;1.70;;;1.60;;
85986;SDS011;76562;42.702;23.250;2024-03-08T13:09:21;1.50;;;1.40;;
85986;SDS011;76562;42.702;23.250;2024-03-08T13:11:50;2.03;;;1.50;;
85986;SDS011;76562;42.702;23.250;2024-03-08T13:14:22;1.63;;;1.50;;
85986;SDS011;76562;42.702;23.250;2024-03-08T13:16:52;1.37;;;1.30;;
85986;SDS011;76562;42.702;23.250;2024-03-08T13:19:21;1.37;;;1.27;;
85986;SDS011;76562;42.702;23.250;2024-03-08T13:21:52;1.70;;;1.60;;
85986;SDS011;76562;42.702;23.250;2024-03-08T13:24:20;1.50;;;1.40;;
85986;SDS011;76562;42.702;23.250;2024-03-08T13:26:49;1.80;;;1.40;;
85986;SDS011;76562;42.702;23.250;2024-03-08T13:29:17;1.70;;;1.43;;
85986;SDS011;76562;42.702;23.250;2024-03-08T13:31:48;1.50;;;1.40;;
85986;SDS011;76562;42.702;23.250;2024-03-08T13:34:19;1.47;;;1.37;;
85986;SDS011;76562;42.702;23.250;2024-03-08T13:36:56;1.40;;;1.30;;
85986;SDS011;76562;42.702;23.250;2024-03-08T13:39:28;1.40;;;1.30;;
85986;SDS011;76562;42.702;23.250;2024-03-08T13:41:58;1.17;;;1.17;;
85986;SDS011;76562;42.702;23.250;2024-03-08T13:44:27;1.40;;;1.30;;
85986;SDS011;76562;42.702;23.250;2024-03-08T13:46:57;1.47;;;1.37;;
85986;SDS011;76562;42.702;23.250;2024-03-08T13:49:26;1.50;;;1.40;;
85986;SDS011;76562;42.702;23.250;2024-03-08T13:51:56;1.53;;;1.43;;
85986;SDS011;76562;42.702;23.250;2024-03-08T13:54:25;1.43;;;1.33;;
85986;SDS011;76562;42.702;23.250;2024-03-08T13:56:58;1.37;;;1.27;;
85986;SDS011;76562;42.702;23.250;2024-03-08T13:59:26;2.33;;;1.50;;
85986;SDS011;76562;42.702;23.250;2024-03-08T14:01:57;3.20;;;1.30;;
85986;SDS011;76562;42.702;23.250;2024-03-08T14:04:26;4.30;;;1.60;;
85986;SDS011;76562;42.702;23.250;2024-03-08T14:06:56;3.10;;;1.17;;
85986;SDS011;76562;42.702;23.250;2024-03-08T14:09:30;5.13;;;1.53;;
85986;SDS011;76562;42.702;23.250;2024-03-08T14:11:58;3.70;;;1.37;;
85986;SDS011;76562;42.702;23.250;2024-03-08T14:14:28;3.67;;;1.33;;
85986;SDS011;76562;42.702;23.250;2024-03-08T14:16:56;5.47;;;1.57;;
85986;SDS011;76562;42.702;23.250;2024-03-08T14:19:25;8.37;;;1.50;;
85986;SDS011;76562;42.702;23.250;2024-03-08T14:21:54;6.23;;;1.60;;
85986;SDS011;76562;42.702;23.250;2024-03-08T14:24:24;4.07;;;1.60;;
85986;SDS011;76562;42.702;23.250;2024-03-08T14:26:56;7.17;;;1.63;;
85986;SDS011;76562;42.702;23.250;2024-03-08T14:29:26;9.00;;;1.60;;
85986;SDS011;76562;42.702;23.250;2024-03-08T14:31:58;4.50;;;1.83;;
85986;SDS011;76562;42.702;23.250;2024-03-08T14:34:28;4.13;;;1.50;;
85986;SDS011;76562;42.702;23.250;2024-03-08T14:36:57;5.00;;;1.73;;
85986;SDS011;76562;42.702;23.250;2024-03-08T14:39:31;4.10;;;2.00;;
85986;SDS011;76562;42.702;23.250;2024-03-08T14:42:00;6.17;;;1.60;;
85986;SDS011;76562;42.702;23.250;2024-03-08T14:44:30;5.77;;;1.87;;
85986;SDS011;76562;42.702;23.250;2024-03-08T14:46:59;4.73;;;2.10;;
85986;SDS011;76562;42.702;23.250;2024-03-08T14:49:28;4.43;;;2.03;;
85986;SDS011;76562;42.702;23.250;2024-03-08T14:51:57;4.93;;;2.10;;
85986;SDS011;76562;42.702;23.250;2024-03-08T14:54:25;4.43;;;2.40;;
85986;SDS011;76562;42.702;23.250;2024-03-08T14:56:56;4.53;;;2.10;;